Time;durP1;ratioP1;P1;durP2;ratioP2;P2;SDS_P1;SDS_P2;PMS_P1;PMS_P2;Temp;Humidity;BMP_temperature;BMP_pressure;BME280_temperature;BME280_humidity;BME280_pressure;Samples;Min_cycle;Max_cycle;Signal;HPM_P1;HPM_P2
2022/12/16 00:02:17;;;;;;;40.60;26.05;;;;;;;-0.39;100.00;101011.25;5045657;28;20054;-81
2022/12/16 00:04:44;;;;;;;40.60;26.00;;;;;;;-0.38;100.00;101018.19;5046391;28;20056;-81
2022/12/16 00:07:12;;;;;;;43.17;26.45;;;;;;;-0.37;100.00;101014.81;5044025;28;20493;-80
2022/12/16 00:09:39;;;;;;;37.47;24.00;;;;;;;-0.36;100.00;101013.97;5014147;28;20052;-80
2022/12/16 00:12:07;;;;;;;39.85;24.63;;;;;;;-0.33;100.00;101005.50;5033197;28;20055;-80
2022/12/16 00:14:34;;;;;;;36.08;25.92;;;;;;;-0.34;100.00;100991.66;5063870;28;20045;-80
2022/12/16 00:17:02;;;;;;;35.40;23.85;;;;;;;-0.31;100.00;100993.50;5054904;28;20056;-81
2022/12/16 00:19:30;;;;;;;48.13;27.15;;;;;;;-0.30;100.00;100990.09;5043886;28;20048;-80
2022/12/16 00:21:57;;;;;;;41.95;26.25;;;;;;;-0.30;100.00;100991.00;5064765;28;20052;-81
2022/12/16 00:24:25;;;;;;;44.78;25.55;;;;;;;-0.29;100.00;100994.47;5007848;28;20063;-80
2022/12/16 00:26:52;;;;;;;41.38;25.85;;;;;;;-0.28;100.00;100998.84;5043892;28;20061;-80
2022/12/16 00:29:21;;;;;;;37.05;24.92;;;;;;;-0.28;100.00;100999.72;5061684;28;20044;-81
2022/12/16 00:31:48;;;;;;;33.88;20.75;;;;;;;-0.26;100.00;101007.56;5045912;28;20049;-79
2022/12/16 00:34:18;;;;;;;34.03;22.33;;;;;;;-0.23;100.00;101005.13;5067829;28;20045;-80
2022/12/16 00:36:46;;;;;;;28.00;20.20;;;;;;;-0.22;100.00;101004.31;5051756;28;20056;-80
2022/12/16 00:39:14;;;;;;;28.52;19.85;;;;;;;-0.20;100.00;101006.16;5026299;28;20059;-81
2022/12/16 00:41:41;;;;;;;27.35;20.67;;;;;;;-0.16;100.00;101003.72;5047897;28;20049;-80
2022/12/16 00:44:09;;;;;;;31.45;18.63;;;;;;;-0.14;100.00;101000.38;5048515;28;20059;-81
2022/12/16 00:46:36;;;;;;;26.25;17.27;;;;;;;-0.10;100.00;101007.50;5044582;28;20040;-80
2022/12/16 00:49:04;;;;;;;22.67;15.80;;;;;;;-0.03;100.00;101003.50;5015973;28;20048;-80
2022/12/16 00:51:31;;;;;;;24.08;15.95;;;;;;;0.07;100.00;101007.44;5036497;28;20051;-79
2022/12/16 00:53:59;;;;;;;20.30;15.07;;;;;;;0.19;100.00;101005.44;4989357;28;20052;-81
2022/12/16 00:56:26;;;;;;;18.38;13.65;;;;;;;0.29;100.00;101019.72;5072988;28;20044;-80
2022/12/16 00:58:54;;;;;;;21.58;13.13;;;;;;;0.35;100.00;101007.03;5042435;28;20056;-80
2022/12/16 01:01:21;;;;;;;15.80;12.68;;;;;;;0.41;100.00;101012.50;5014475;28;20047;-80
2022/12/16 01:03:49;;;;;;;16.90;13.77;;;;;;;0.45;100.00;101022.19;5051662;28;20048;-79
2022/12/16 01:06:17;;;;;;;14.80;12.00;;;;;;;0.51;100.00;101013.81;5036705;28;20052;-80
2022/12/16 01:08:47;;;;;;;18.13;12.15;;;;;;;0.54;100.00;101011.38;5003477;28;20053;-80
2022/12/16 01:11:16;;;;;;;;;;;;;;;0.59;100.00;101020.28;5020145;28;20040;-80
2022/12/16 01:13:44;;;;;;;15.98;12.07;;;;;;;0.62;100.00;101006.53;5037052;28;19921;-81
2022/12/16 01:16:12;;;;;;;16.63;11.98;;;;;;;0.64;100.00;101002.31;5029694;28;20056;-81
2022/12/16 01:18:39;;;;;;;16.77;11.98;;;;;;;0.68;100.00;101012.00;5026582;28;20049;-80
2022/12/16 01:21:12;;;;;;;15.70;11.30;;;;;;;0.71;100.00;101020.81;5010328;28;20045;-81
2022/12/16 01:23:40;;;;;;;13.73;12.13;;;;;;;0.74;100.00;101015.78;5031575;28;20796;-79
2022/12/16 01:26:13;;;;;;;19.30;12.30;;;;;;;0.76;100.00;101011.53;5005110;28;20064;-81
2022/12/16 01:28:41;;;;;;;19.02;11.27;;;;;;;0.78;100.00;101012.50;5049070;28;20515;-79
2022/12/16 01:31:09;;;;;;;16.95;12.13;;;;;;;0.79;100.00;101015.97;5036254;28;20045;-81
2022/12/16 01:33:37;;;;;;;16.83;11.13;;;;;;;0.81;100.00;101022.13;5027599;28;20044;-79
2022/12/16 01:36:06;;;;;;;13.20;10.98;;;;;;;0.84;100.00;101029.16;5039869;28;20037;-81
2022/12/16 01:38:35;;;;;;;13.80;9.68;;;;;;;0.86;100.00;101036.19;5025513;28;20056;-81
2022/12/16 01:41:03;;;;;;;14.20;9.98;;;;;;;0.89;100.00;101032.84;5036442;28;20045;-81
2022/12/16 01:43:34;;;;;;;13.45;9.13;;;;;;;0.91;100.00;101036.41;5017207;28;20052;-80
2022/12/16 01:46:23;;;;;;;10.52;8.70;;;;;;;0.93;100.00;101038.25;5052254;28;20494;-81
2022/12/16 01:49:05;;;;;;;13.45;8.20;;;;;;;0.96;100.00;101041.00;5009750;28;20049;-81
2022/12/16 01:51:42;;;;;;;12.43;9.25;;;;;;;0.97;100.00;101044.47;5037885;28;20037;-80
2022/12/16 01:54:23;;;;;;;12.20;8.73;;;;;;;0.97;100.00;101034.97;5047380;28;20041;-82
2022/12/16 01:56:54;;;;;;;11.10;8.07;;;;;;;0.99;100.00;101036.75;5009575;28;20053;-80
2022/12/16 01:59:27;;;;;;;14.70;8.60;;;;;;;1.01;100.00;101029.94;5035867;28;20064;-79
2022/12/16 02:01:55;;;;;;;12.45;9.73;;;;;;;1.01;100.00;101032.53;5043562;28;20048;-80
2022/12/16 02:04:22;;;;;;;12.93;10.07;;;;;;;1.03;100.00;101038.66;5040913;28;20048;-80
2022/12/16 02:06:52;;;;;;;13.40;9.75;;;;;;;1.05;100.00;101029.25;4995386;28;20056;-80
2022/12/16 02:09:20;;;;;;;;;;;;;;;1.05;100.00;101035.31;5007010;28;20053;-80
2022/12/16 02:12:00;;;;;;;14.05;9.68;;;;;;;1.06;100.00;101033.59;4992295;28;25056;-80
2022/12/16 02:14:30;;;;;;;15.35;10.90;;;;;;;1.07;100.00;101028.47;5023108;28;20045;-80
2022/12/16 02:17:16;;;;;;;13.68;11.30;;;;;;;1.07;100.00;101035.38;5049814;28;20052;-80
2022/12/16 02:20:06;;;;;;;19.70;10.68;;;;;;;1.08;100.00;101029.41;5023894;28;20044;-80
2022/12/16 02:22:48;;;;;;;15.90;10.98;;;;;;;1.08;100.00;101025.09;5020968;28;20132;-80
2022/12/16 02:25:47;;;;;;;14.85;11.07;;;;;;;1.08;100.00;101032.00;5030491;28;20052;-80
2022/12/16 02:29:02;;;;;;;14.07;11.95;;;;;;;1.12;100.00;101023.50;5014254;28;20516;-81
2022/12/16 02:31:52;;;;;;;13.00;10.73;;;;;;;1.14;100.00;101007.19;5036359;28;20064;-80
2022/12/16 02:34:48;;;;;;;20.48;14.40;;;;;;;1.16;100.00;101012.44;5027891;28;20494;-80
2022/12/16 02:37:38;;;;;;;19.65;14.30;;;;;;;1.17;100.00;101009.91;5047381;28;20045;-81
2022/12/16 02:40:23;;;;;;;19.58;14.82;;;;;;;1.20;100.00;101008.28;5027239;28;20057;-80
2022/12/16 02:42:57;;;;;;;22.98;16.13;;;;;;;1.22;100.00;101011.81;5001627;28;20056;-80
2022/12/16 02:45:28;;;;;;;22.73;15.85;;;;;;;1.23;100.00;101010.97;5026812;28;20049;-80
2022/12/16 02:47:56;;;;;;;21.98;15.63;;;;;;;1.24;100.00;101007.56;5034157;28;20052;-80
2022/12/16 02:50:38;;;;;;;21.48;16.25;;;;;;;1.26;100.00;101009.41;5024915;28;20041;-80
2022/12/16 02:53:08;;;;;;;26.15;17.60;;;;;;;1.27;100.00;101012.91;5051743;28;20048;-80
2022/12/16 02:56:05;;;;;;;25.87;16.37;;;;;;;1.30;100.00;101019.09;5020492;28;20056;-80
2022/12/16 02:59:02;;;;;;;23.10;16.08;;;;;;;1.31;100.00;101018.28;5030813;28;20048;-80
2022/12/16 03:01:50;;;;;;;21.42;14.90;;;;;;;1.31;100.00;101018.28;5041398;28;20044;-79
2022/12/16 03:04:35;;;;;;;24.98;14.88;;;;;;;1.33;100.00;101013.16;5052081;28;20502;-80
2022/12/16 03:07:08;;;;;;;20.67;15.77;;;;;;;1.32;100.00;101014.88;5050123;28;20045;-81
2022/12/16 03:09:39;;;;;;;27.30;17.50;;;;;;;1.31;100.00;101023.47;5013815;28;20517;-80
2022/12/16 03:12:12;;;;;;;30.80;21.30;;;;;;;1.29;100.00;101022.53;5037510;28;20041;-80
2022/12/16 03:14:42;;;;;;;32.25;22.40;;;;;;;1.28;100.00;101023.34;5019110;28;20049;-81
2022/12/16 03:17:12;;;;;;;31.52;22.45;;;;;;;1.26;100.00;101021.50;5054542;28;20508;-81
2022/12/16 03:20:00;;;;;;;31.92;21.17;;;;;;;1.22;100.00;101033.47;5045016;28;20049;-80
2022/12/16 03:22:31;;;;;;;33.38;21.13;;;;;;;1.19;100.00;101029.84;5024997;28;20056;-80
2022/12/16 03:24:58;;;;;;;;;;;;;;;1.17;100.00;101037.56;5017862;28;20049;-81
2022/12/16 03:27:41;;;;;;;32.55;20.13;;;;;;;1.13;100.00;101041.72;5020745;28;19948;-80
2022/12/16 03:30:15;;;;;;;33.60;22.60;;;;;;;1.04;100.00;101040.44;5027931;28;20438;-81
2022/12/16 03:32:57;;;;;;;35.05;23.80;;;;;;;0.90;100.00;101047.59;5033998;28;20779;-80
2022/12/16 03:35:32;;;;;;;28.60;20.70;;;;;;;0.75;100.00;101053.84;5040492;28;20057;-80
2022/12/16 03:38:02;;;;;;;29.45;20.50;;;;;;;0.68;100.00;101051.81;5024814;28;20060;-80
2022/12/16 03:40:32;;;;;;;29.27;20.67;;;;;;;0.63;100.00;101058.50;5039544;28;20045;-80
2022/12/16 03:43:02;;;;;;;33.45;21.83;;;;;;;0.60;100.00;101070.41;5032339;28;20542;-80
2022/12/16 03:45:36;;;;;;;30.83;21.45;;;;;;;0.54;100.00;101074.50;5020187;28;20056;-80
2022/12/16 03:48:07;;;;;;;36.28;23.35;;;;;;;0.51;100.00;101091.59;5054973;28;20410;-80
2022/12/16 03:50:35;;;;;;;37.05;24.52;;;;;;;0.47;100.00;101087.09;5031472;28;20045;-79
2022/12/16 03:53:04;;;;;;;39.67;25.17;;;;;;;0.39;100.00;101092.78;5050373;28;20041;-80
2022/12/16 03:55:31;;;;;;;34.45;24.48;;;;;;;0.34;100.00;101091.72;5052973;28;20053;-80
2022/12/16 03:57:59;;;;;;;41.63;27.13;;;;;;;0.27;100.00;101104.31;5027747;28;20060;-80
2022/12/16 04:00:26;;;;;;;44.00;28.42;;;;;;;0.14;100.00;101108.88;5018894;28;20060;-80
2022/12/16 04:02:53;;;;;;;45.50;29.15;;;;;;;0.05;100.00;101103.22;5053375;28;20506;-79
2022/12/16 04:05:22;;;;;;;45.30;28.42;;;;;;;-0.01;100.00;101109.00;5013682;28;20053;-80
2022/12/16 04:07:50;;;;;;;44.13;29.83;;;;;;;-0.05;100.00;101124.31;5038590;28;20049;-80
2022/12/16 04:24:17;;;;;;;51.22;30.27;;;;;;;-0.09;100.00;101130.16;5041055;28;20053;-80
2022/12/16 04:24:25;;;;;;;51.95;31.65;;;;;;;-0.44;100.00;101150.81;5012211;28;20060;-79
